East Liverpool, Ohio
Current Conditions -  °F | °C
As of 2:51 PM on Monday 24 Nov 2014 (Local Time) from KPIT Reporting Station
Light Rain Light Rain  
Wind Chill: 65°   Ceiling: 5000
Heat Index: 65°   Visibility: 10mi
Dew Point: 42°   Wind: 28mph
Humidity: 43%   Direction: 240°WSW
Pressure: 29.45"   Gusts: 49mph
Location:  40.62°N, 80.58°W
Report Text: KPIT 241951Z 24024G43KT 10SM -RA BKN050 18/06 A2945 RMK AO2 RAB47 SLP974 PK WND 24043/1942 T01830056 PNO VISNO SE $
Loading
Personal Weather Stations






























Interactive Weather Map New forecast layout! Learn more

10-Day Weather Forecast

Advertisements
Track Severe Weather on mobile